sensor_id;sensor_type;location;lat;lon;timestamp;temperature;humidity
790;DHT22;378;48.844;9.156;2024-01-27T00:01:43;5.30;99.90
790;DHT22;378;48.844;9.156;2024-01-27T00:04:10;5.40;99.90
790;DHT22;378;48.844;9.156;2024-01-27T00:06:38;5.30;99.90
790;DHT22;378;48.844;9.156;2024-01-27T00:09:05;5.20;99.90
790;DHT22;378;48.844;9.156;2024-01-27T00:11:32;5.20;99.90
790;DHT22;378;48.844;9.156;2024-01-27T00:13:59;5.10;99.90
790;DHT22;378;48.844;9.156;2024-01-27T00:16:26;5.00;99.90
790;DHT22;378;48.844;9.156;2024-01-27T00:18:53;4.90;99.90
790;DHT22;378;48.844;9.156;2024-01-27T00:21:20;5.00;99.90
790;DHT22;378;48.844;9.156;2024-01-27T00:23:48;5.00;99.90
790;DHT22;378;48.844;9.156;2024-01-27T00:26:15;5.00;99.90
790;DHT22;378;48.844;9.156;2024-01-27T00:28:42;5.00;99.90
790;DHT22;378;48.844;9.156;2024-01-27T00:31:08;5.00;99.90
790;DHT22;378;48.844;9.156;2024-01-27T00:33:35;5.00;99.90
790;DHT22;378;48.844;9.156;2024-01-27T00:36:02;5.00;99.90
790;DHT22;378;48.844;9.156;2024-01-27T00:38:29;4.90;99.90
790;DHT22;378;48.844;9.156;2024-01-27T00:40:57;4.90;99.90
790;DHT22;378;48.844;9.156;2024-01-27T00:43:24;4.80;99.90
790;DHT22;378;48.844;9.156;2024-01-27T00:45:51;4.80;99.90
790;DHT22;378;48.844;9.156;2024-01-27T00:48:18;4.90;99.90
790;DHT22;378;48.844;9.156;2024-01-27T00:50:44;4.80;99.90
790;DHT22;378;48.844;9.156;2024-01-27T00:53:11;4.70;99.90
790;DHT22;378;48.844;9.156;2024-01-27T00:55:38;4.80;99.90
790;DHT22;378;48.844;9.156;2024-01-27T00:58:07;4.80;99.90
790;DHT22;378;48.844;9.156;2024-01-27T01:00:34;4.70;99.90
790;DHT22;378;48.844;9.156;2024-01-27T01:03:01;4.70;99.90
790;DHT22;378;48.844;9.156;2024-01-27T01:05:27;4.70;99.90
790;DHT22;378;48.844;9.156;2024-01-27T01:07:54;4.60;99.90
790;DHT22;378;48.844;9.156;2024-01-27T01:10:21;4.70;99.90
790;DHT22;378;48.844;9.156;2024-01-27T01:12:48;4.60;99.90
790;DHT22;378;48.844;9.156;2024-01-27T01:15:16;4.50;99.90
790;DHT22;378;48.844;9.156;2024-01-27T01:17:43;4.60;99.90
790;DHT22;378;48.844;9.156;2024-01-27T01:20:10;4.50;99.90
790;DHT22;378;48.844;9.156;2024-01-27T01:22:37;4.50;99.90
790;DHT22;378;48.844;9.156;2024-01-27T01:25:05;4.50;99.90
790;DHT22;378;48.844;9.156;2024-01-27T01:27:32;4.40;99.90
790;DHT22;378;48.844;9.156;2024-01-27T01:29:59;4.40;99.90
790;DHT22;378;48.844;9.156;2024-01-27T01:32:27;4.50;99.90
790;DHT22;378;48.844;9.156;2024-01-27T01:34:54;4.40;99.90
790;DHT22;378;48.844;9.156;2024-01-27T01:37:20;4.40;99.90
790;DHT22;378;48.844;9.156;2024-01-27T01:39:47;4.40;99.90
790;DHT22;378;48.844;9.156;2024-01-27T01:42:14;4.40;99.90
790;DHT22;378;48.844;9.156;2024-01-27T01:44:41;4.40;99.90
790;DHT22;378;48.844;9.156;2024-01-27T01:47:08;4.40;99.90
790;DHT22;378;48.844;9.156;2024-01-27T01:49:36;4.40;99.90
790;DHT22;378;48.844;9.156;2024-01-27T01:52:03;4.50;99.90
790;DHT22;378;48.844;9.156;2024-01-27T01:54:30;4.60;99.90
790;DHT22;378;48.844;9.156;2024-01-27T01:56:58;4.60;99.90
790;DHT22;378;48.844;9.156;2024-01-27T01:59:25;4.50;99.90
790;DHT22;378;48.844;9.156;2024-01-27T02:01:53;4.40;99.90
790;DHT22;378;48.844;9.156;2024-01-27T02:04:19;4.50;99.90
790;DHT22;378;48.844;9.156;2024-01-27T02:06:48;4.50;99.90
790;DHT22;378;48.844;9.156;2024-01-27T02:09:14;4.30;99.90
790;DHT22;378;48.844;9.156;2024-01-27T02:11:41;4.30;99.90
790;DHT22;378;48.844;9.156;2024-01-27T02:14:08;4.30;99.90
790;DHT22;378;48.844;9.156;2024-01-27T02:16:35;4.20;99.90
790;DHT22;378;48.844;9.156;2024-01-27T02:19:02;4.10;99.90
790;DHT22;378;48.844;9.156;2024-01-27T02:21:29;4.10;99.90
790;DHT22;378;48.844;9.156;2024-01-27T02:23:58;4.10;99.90
790;DHT22;378;48.844;9.156;2024-01-27T02:26:26;4.10;99.90
790;DHT22;378;48.844;9.156;2024-01-27T02:28:53;4.20;99.90
790;DHT22;378;48.844;9.156;2024-01-27T02:31:19;4.20;99.90
790;DHT22;378;48.844;9.156;2024-01-27T02:33:46;4.20;99.90
790;DHT22;378;48.844;9.156;2024-01-27T02:36:13;4.20;99.90
790;DHT22;378;48.844;9.156;2024-01-27T02:38:40;4.20;99.90
790;DHT22;378;48.844;9.156;2024-01-27T02:41:07;4.20;99.90
790;DHT22;378;48.844;9.156;2024-01-27T02:43:35;4.20;99.90
790;DHT22;378;48.844;9.156;2024-01-27T02:46:01;4.20;99.90
790;DHT22;378;48.844;9.156;2024-01-27T02:48:28;4.20;99.90
790;DHT22;378;48.844;9.156;2024-01-27T02:50:55;4.10;99.90
790;DHT22;378;48.844;9.156;2024-01-27T02:53:22;4.20;99.90
790;DHT22;378;48.844;9.156;2024-01-27T02:55:48;4.20;99.90
790;DHT22;378;48.844;9.156;2024-01-27T02:58:16;4.30;99.90
790;DHT22;378;48.844;9.156;2024-01-27T03:00:44;4.20;99.90
790;DHT22;378;48.844;9.156;2024-01-27T03:03:10;4.20;99.90
790;DHT22;378;48.844;9.156;2024-01-27T03:05:37;4.10;99.90
790;DHT22;378;48.844;9.156;2024-01-27T03:08:05;4.10;99.90
790;DHT22;378;48.844;9.156;2024-01-27T03:10:32;4.10;99.90
790;DHT22;378;48.844;9.156;2024-01-27T03:12:58;4.00;99.90
790;DHT22;378;48.844;9.156;2024-01-27T03:15:25;3.90;99.90
790;DHT22;378;48.844;9.156;2024-01-27T03:17:53;3.90;99.90
790;DHT22;378;48.844;9.156;2024-01-27T03:20:20;3.80;99.90
790;DHT22;378;48.844;9.156;2024-01-27T03:22:47;3.70;99.90
790;DHT22;378;48.844;9.156;2024-01-27T03:25:14;3.70;99.90
790;DHT22;378;48.844;9.156;2024-01-27T03:27:41;3.70;99.90
790;DHT22;378;48.844;9.156;2024-01-27T03:30:08;3.60;99.90
790;DHT22;378;48.844;9.156;2024-01-27T03:32:35;3.50;99.90
790;DHT22;378;48.844;9.156;2024-01-27T03:35:04;3.50;99.90
790;DHT22;378;48.844;9.156;2024-01-27T03:37:31;3.60;99.90
790;DHT22;378;48.844;9.156;2024-01-27T03:39:58;3.50;99.90
790;DHT22;378;48.844;9.156;2024-01-27T03:42:25;3.50;99.90
790;DHT22;378;48.844;9.156;2024-01-27T03:44:52;3.40;99.90
790;DHT22;378;48.844;9.156;2024-01-27T03:47:19;3.40;99.90
790;DHT22;378;48.844;9.156;2024-01-27T03:49:46;3.20;99.90
790;DHT22;378;48.844;9.156;2024-01-27T03:52:14;3.10;99.90
790;DHT22;378;48.844;9.156;2024-01-27T03:54:41;2.90;99.90
790;DHT22;378;48.844;9.156;2024-01-27T03:57:08;2.80;99.90
790;DHT22;378;48.844;9.156;2024-01-27T03:59:39;2.70;99.90
790;DHT22;378;48.844;9.156;2024-01-27T04:02:06;2.70;99.90
790;DHT22;378;48.844;9.156;2024-01-27T04:04:33;2.70;99.90
790;DHT22;378;48.844;9.156;2024-01-27T04:07:00;2.60;99.90
790;DHT22;378;48.844;9.156;2024-01-27T04:09:28;2.60;99.90
790;DHT22;378;48.844;9.156;2024-01-27T04:11:55;2.60;99.90
790;DHT22;378;48.844;9.156;2024-01-27T04:14:22;2.60;99.90
790;DHT22;378;48.844;9.156;2024-01-27T04:16:49;2.50;99.90
790;DHT22;378;48.844;9.156;2024-01-27T04:19:16;2.50;99.90
790;DHT22;378;48.844;9.156;2024-01-27T04:21:43;2.50;99.90
790;DHT22;378;48.844;9.156;2024-01-27T04:24:10;2.40;99.90
790;DHT22;378;48.844;9.156;2024-01-27T04:26:38;2.40;99.90
790;DHT22;378;48.844;9.156;2024-01-27T04:29:04;2.50;99.90
790;DHT22;378;48.844;9.156;2024-01-27T04:31:31;2.50;99.90
790;DHT22;378;48.844;9.156;2024-01-27T04:33:58;2.50;99.90
790;DHT22;378;48.844;9.156;2024-01-27T04:36:26;2.60;99.90
790;DHT22;378;48.844;9.156;2024-01-27T04:38:53;2.70;99.90
790;DHT22;378;48.844;9.156;2024-01-27T04:41:20;2.80;99.90
790;DHT22;378;48.844;9.156;2024-01-27T04:43:48;2.80;99.90
790;DHT22;378;48.844;9.156;2024-01-27T04:46:15;2.90;99.90
790;DHT22;378;48.844;9.156;2024-01-27T04:48:42;2.90;99.90
790;DHT22;378;48.844;9.156;2024-01-27T04:51:09;2.90;99.90
790;DHT22;378;48.844;9.156;2024-01-27T04:53:36;3.00;99.90
790;DHT22;378;48.844;9.156;2024-01-27T04:56:03;3.00;99.90
790;DHT22;378;48.844;9.156;2024-01-27T04:58:33;3.00;99.90
790;DHT22;378;48.844;9.156;2024-01-27T05:01:01;3.00;99.90
790;DHT22;378;48.844;9.156;2024-01-27T05:03:28;3.10;99.90
790;DHT22;378;48.844;9.156;2024-01-27T05:05:55;3.10;99.90
790;DHT22;378;48.844;9.156;2024-01-27T05:08:21;3.10;99.90
790;DHT22;378;48.844;9.156;2024-01-27T05:10:48;3.10;99.90
790;DHT22;378;48.844;9.156;2024-01-27T05:13:15;3.10;99.90
790;DHT22;378;48.844;9.156;2024-01-27T05:15:42;3.10;99.90
790;DHT22;378;48.844;9.156;2024-01-27T05:18:10;3.20;99.90
790;DHT22;378;48.844;9.156;2024-01-27T05:20:37;3.20;99.90
790;DHT22;378;48.844;9.156;2024-01-27T05:23:04;3.20;99.90
790;DHT22;378;48.844;9.156;2024-01-27T05:25:30;3.20;99.90
790;DHT22;378;48.844;9.156;2024-01-27T05:27:57;3.20;99.90
790;DHT22;378;48.844;9.156;2024-01-27T05:30:24;3.10;99.90
790;DHT22;378;48.844;9.156;2024-01-27T05:32:51;3.10;99.90
790;DHT22;378;48.844;9.156;2024-01-27T05:35:19;3.20;99.90
790;DHT22;378;48.844;9.156;2024-01-27T05:37:46;3.20;99.90
790;DHT22;378;48.844;9.156;2024-01-27T05:40:12;3.30;99.90
790;DHT22;378;48.844;9.156;2024-01-27T05:42:40;3.30;99.90
790;DHT22;378;48.844;9.156;2024-01-27T05:45:09;3.30;99.90
790;DHT22;378;48.844;9.156;2024-01-27T05:47:36;3.30;99.90
790;DHT22;378;48.844;9.156;2024-01-27T05:50:03;3.30;99.90
790;DHT22;378;48.844;9.156;2024-01-27T05:52:34;3.30;99.90
790;DHT22;378;48.844;9.156;2024-01-27T05:55:01;3.20;99.90
790;DHT22;378;48.844;9.156;2024-01-27T05:57:28;3.20;99.90
790;DHT22;378;48.844;9.156;2024-01-27T05:59:55;3.10;99.90
790;DHT22;378;48.844;9.156;2024-01-27T06:02:21;3.00;99.90
790;DHT22;378;48.844;9.156;2024-01-27T06:04:48;2.90;99.90
790;DHT22;378;48.844;9.156;2024-01-27T06:07:15;2.70;99.90
790;DHT22;378;48.844;9.156;2024-01-27T06:09:43;2.60;99.90
790;DHT22;378;48.844;9.156;2024-01-27T06:12:10;2.50;99.90
790;DHT22;378;48.844;9.156;2024-01-27T06:14:37;2.30;99.90
790;DHT22;378;48.844;9.156;2024-01-27T06:17:04;2.10;99.90
790;DHT22;378;48.844;9.156;2024-01-27T06:19:31;2.00;99.90
790;DHT22;378;48.844;9.156;2024-01-27T06:21:58;1.90;99.90
790;DHT22;378;48.844;9.156;2024-01-27T06:24:25;1.90;99.90
790;DHT22;378;48.844;9.156;2024-01-27T06:26:53;1.90;99.90
790;DHT22;378;48.844;9.156;2024-01-27T06:29:20;2.00;99.90
790;DHT22;378;48.844;9.156;2024-01-27T06:31:48;1.90;99.90
790;DHT22;378;48.844;9.156;2024-01-27T06:34:15;1.80;99.90
790;DHT22;378;48.844;9.156;2024-01-27T06:36:41;1.70;99.90
790;DHT22;378;48.844;9.156;2024-01-27T06:39:08;1.60;99.90
790;DHT22;378;48.844;9.156;2024-01-27T06:41:35;1.50;99.90
790;DHT22;378;48.844;9.156;2024-01-27T06:44:03;1.40;99.90
790;DHT22;378;48.844;9.156;2024-01-27T06:46:30;1.40;99.90
790;DHT22;378;48.844;9.156;2024-01-27T06:48:57;1.40;99.90
790;DHT22;378;48.844;9.156;2024-01-27T06:51:24;1.30;99.90
790;DHT22;378;48.844;9.156;2024-01-27T06:53:50;1.30;99.90
790;DHT22;378;48.844;9.156;2024-01-27T06:56:17;1.30;99.90
790;DHT22;378;48.844;9.156;2024-01-27T06:58:44;1.30;99.90
790;DHT22;378;48.844;9.156;2024-01-27T07:01:12;1.20;99.90
790;DHT22;378;48.844;9.156;2024-01-27T07:03:39;1.20;99.90
790;DHT22;378;48.844;9.156;2024-01-27T07:06:06;1.10;99.90
790;DHT22;378;48.844;9.156;2024-01-27T07:08:33;1.10;99.90
790;DHT22;378;48.844;9.156;2024-01-27T07:11:00;1.20;99.90
790;DHT22;378;48.844;9.156;2024-01-27T07:13:26;1.20;99.90
790;DHT22;378;48.844;9.156;2024-01-27T07:15:55;1.10;99.90
790;DHT22;378;48.844;9.156;2024-01-27T07:18:23;1.20;99.90
790;DHT22;378;48.844;9.156;2024-01-27T07:20:50;1.20;99.90
790;DHT22;378;48.844;9.156;2024-01-27T07:23:17;1.30;99.90
790;DHT22;378;48.844;9.156;2024-01-27T07:25:45;1.30;99.90
790;DHT22;378;48.844;9.156;2024-01-27T07:28:12;1.30;99.90
790;DHT22;378;48.844;9.156;2024-01-27T07:30:40;1.40;99.90
790;DHT22;378;48.844;9.156;2024-01-27T07:33:07;1.50;99.90
790;DHT22;378;48.844;9.156;2024-01-27T07:35:35;1.60;99.90
790;DHT22;378;48.844;9.156;2024-01-27T07:38:02;1.70;99.90
790;DHT22;378;48.844;9.156;2024-01-27T07:40:29;1.80;99.90
790;DHT22;378;48.844;9.156;2024-01-27T07:42:56;1.90;99.90
790;DHT22;378;48.844;9.156;2024-01-27T07:45:23;1.90;99.90
790;DHT22;378;48.844;9.156;2024-01-27T07:47:50;2.00;99.90
790;DHT22;378;48.844;9.156;2024-01-27T07:50:17;2.00;99.90
790;DHT22;378;48.844;9.156;2024-01-27T07:52:45;2.10;99.90
790;DHT22;378;48.844;9.156;2024-01-27T07:55:12;2.10;99.90
790;DHT22;378;48.844;9.156;2024-01-27T07:57:38;2.10;99.90
790;DHT22;378;48.844;9.156;2024-01-27T08:00:06;2.10;99.90
790;DHT22;378;48.844;9.156;2024-01-27T08:02:33;2.10;99.90
790;DHT22;378;48.844;9.156;2024-01-27T08:05:00;2.10;99.90
790;DHT22;378;48.844;9.156;2024-01-27T08:07:29;2.10;99.90
790;DHT22;378;48.844;9.156;2024-01-27T08:09:57;2.10;99.90
790;DHT22;378;48.844;9.156;2024-01-27T08:12:24;2.00;99.90
790;DHT22;378;48.844;9.156;2024-01-27T08:14:50;2.10;99.90
790;DHT22;378;48.844;9.156;2024-01-27T08:17:18;2.00;99.90
790;DHT22;378;48.844;9.156;2024-01-27T08:19:44;2.10;99.90
790;DHT22;378;48.844;9.156;2024-01-27T08:22:11;2.10;99.90
790;DHT22;378;48.844;9.156;2024-01-27T08:24:38;2.20;99.90
790;DHT22;378;48.844;9.156;2024-01-27T08:27:06;2.20;99.90
790;DHT22;378;48.844;9.156;2024-01-27T08:29:33;2.30;99.90
790;DHT22;378;48.844;9.156;2024-01-27T08:32:00;2.40;99.90
790;DHT22;378;48.844;9.156;2024-01-27T08:34:27;2.50;99.90
790;DHT22;378;48.844;9.156;2024-01-27T08:36:59;2.50;99.90
790;DHT22;378;48.844;9.156;2024-01-27T08:39:26;2.60;99.90
790;DHT22;378;48.844;9.156;2024-01-27T08:41:53;2.60;99.90
790;DHT22;378;48.844;9.156;2024-01-27T08:44:21;2.70;99.90
790;DHT22;378;48.844;9.156;2024-01-27T08:46:48;2.70;99.90
790;DHT22;378;48.844;9.156;2024-01-27T08:49:15;2.70;99.90
790;DHT22;378;48.844;9.156;2024-01-27T08:51:42;2.80;99.90
790;DHT22;378;48.844;9.156;2024-01-27T08:54:09;2.90;99.90
790;DHT22;378;48.844;9.156;2024-01-27T08:56:39;2.90;99.90
790;DHT22;378;48.844;9.156;2024-01-27T08:59:06;2.90;99.90
790;DHT22;378;48.844;9.156;2024-01-27T09:01:34;2.90;99.90
790;DHT22;378;48.844;9.156;2024-01-27T09:04:01;2.90;99.90
790;DHT22;378;48.844;9.156;2024-01-27T09:06:28;2.90;99.90
790;DHT22;378;48.844;9.156;2024-01-27T09:08:55;3.00;99.90
790;DHT22;378;48.844;9.156;2024-01-27T09:11:22;3.00;99.90
790;DHT22;378;48.844;9.156;2024-01-27T09:13:49;3.00;99.90
790;DHT22;378;48.844;9.156;2024-01-27T09:16:17;3.00;99.90
790;DHT22;378;48.844;9.156;2024-01-27T09:18:45;3.00;99.90
790;DHT22;378;48.844;9.156;2024-01-27T09:21:12;3.00;99.90
790;DHT22;378;48.844;9.156;2024-01-27T09:23:45;3.00;99.90
790;DHT22;378;48.844;9.156;2024-01-27T09:26:12;3.10;99.90
790;DHT22;378;48.844;9.156;2024-01-27T09:28:40;3.00;99.90
790;DHT22;378;48.844;9.156;2024-01-27T09:31:09;3.00;99.90
790;DHT22;378;48.844;9.156;2024-01-27T09:33:37;3.10;99.90
790;DHT22;378;48.844;9.156;2024-01-27T09:36:05;3.10;99.90
790;DHT22;378;48.844;9.156;2024-01-27T09:38:33;3.20;99.90
790;DHT22;378;48.844;9.156;2024-01-27T09:40:59;3.20;99.90
790;DHT22;378;48.844;9.156;2024-01-27T09:43:27;3.40;99.90
790;DHT22;378;48.844;9.156;2024-01-27T09:45:54;3.50;99.90
790;DHT22;378;48.844;9.156;2024-01-27T09:48:21;3.50;99.90
790;DHT22;378;48.844;9.156;2024-01-27T09:50:48;3.50;99.90
790;DHT22;378;48.844;9.156;2024-01-27T09:53:17;3.60;99.90
790;DHT22;378;48.844;9.156;2024-01-27T09:55:44;3.70;99.90
790;DHT22;378;48.844;9.156;2024-01-27T09:58:11;3.70;99.90
790;DHT22;378;48.844;9.156;2024-01-27T10:00:41;3.80;99.90
790;DHT22;378;48.844;9.156;2024-01-27T10:03:09;3.80;99.90
790;DHT22;378;48.844;9.156;2024-01-27T10:05:36;3.90;99.90
790;DHT22;378;48.844;9.156;2024-01-27T10:08:06;4.00;99.90
790;DHT22;378;48.844;9.156;2024-01-27T10:10:35;4.00;99.90
790;DHT22;378;48.844;9.156;2024-01-27T10:13:04;4.10;99.90
790;DHT22;378;48.844;9.156;2024-01-27T10:15:31;4.10;99.90
790;DHT22;378;48.844;9.156;2024-01-27T10:18:04;4.20;99.90
790;DHT22;378;48.844;9.156;2024-01-27T10:20:32;4.20;99.90
790;DHT22;378;48.844;9.156;2024-01-27T10:23:09;4.30;99.90
790;DHT22;378;48.844;9.156;2024-01-27T10:25:38;4.30;99.90
790;DHT22;378;48.844;9.156;2024-01-27T10:28:06;4.30;99.90
790;DHT22;378;48.844;9.156;2024-01-27T10:30:33;4.40;99.90
790;DHT22;378;48.844;9.156;2024-01-27T10:33:00;4.40;99.90
790;DHT22;378;48.844;9.156;2024-01-27T10:35:27;4.40;99.90
790;DHT22;378;48.844;9.156;2024-01-27T10:37:54;4.50;99.90
790;DHT22;378;48.844;9.156;2024-01-27T10:40:22;4.70;99.90
790;DHT22;378;48.844;9.156;2024-01-27T10:43:00;4.80;99.90
790;DHT22;378;48.844;9.156;2024-01-27T10:45:32;5.20;99.90
790;DHT22;378;48.844;9.156;2024-01-27T10:48:02;5.30;99.90
790;DHT22;378;48.844;9.156;2024-01-27T10:50:29;5.40;99.90
790;DHT22;378;48.844;9.156;2024-01-27T10:52:57;5.50;99.90
790;DHT22;378;48.844;9.156;2024-01-27T10:55:25;5.60;99.90
790;DHT22;378;48.844;9.156;2024-01-27T10:57:54;5.60;99.90
790;DHT22;378;48.844;9.156;2024-01-27T11:00:24;5.70;99.90
790;DHT22;378;48.844;9.156;2024-01-27T11:02:52;5.80;99.90
790;DHT22;378;48.844;9.156;2024-01-27T11:05:20;5.80;99.90
790;DHT22;378;48.844;9.156;2024-01-27T11:07:48;5.80;99.90
790;DHT22;378;48.844;9.156;2024-01-27T11:10:16;5.90;99.90
790;DHT22;378;48.844;9.156;2024-01-27T11:12:44;5.90;99.90
790;DHT22;378;48.844;9.156;2024-01-27T11:15:13;6.00;99.90
790;DHT22;378;48.844;9.156;2024-01-27T11:17:40;6.00;99.90
790;DHT22;378;48.844;9.156;2024-01-27T11:20:08;6.10;99.90
790;DHT22;378;48.844;9.156;2024-01-27T11:22:37;6.10;99.90
790;DHT22;378;48.844;9.156;2024-01-27T11:25:07;6.10;99.90
790;DHT22;378;48.844;9.156;2024-01-27T11:27:34;6.10;99.90
790;DHT22;378;48.844;9.156;2024-01-27T11:30:02;6.10;99.90
790;DHT22;378;48.844;9.156;2024-01-27T11:32:30;6.10;99.90
790;DHT22;378;48.844;9.156;2024-01-27T11:35:01;6.20;99.90
790;DHT22;378;48.844;9.156;2024-01-27T11:37:30;6.20;99.90
790;DHT22;378;48.844;9.156;2024-01-27T11:40:03;6.20;99.90
790;DHT22;378;48.844;9.156;2024-01-27T11:42:31;6.20;99.90
790;DHT22;378;48.844;9.156;2024-01-27T11:44:58;6.30;99.90
790;DHT22;378;48.844;9.156;2024-01-27T11:47:26;6.30;99.90
790;DHT22;378;48.844;9.156;2024-01-27T11:49:55;6.30;99.90
790;DHT22;378;48.844;9.156;2024-01-27T11:52:24;6.30;99.90
790;DHT22;378;48.844;9.156;2024-01-27T11:54:54;6.30;99.90
790;DHT22;378;48.844;9.156;2024-01-27T11:57:23;6.20;99.90
790;DHT22;378;48.844;9.156;2024-01-27T11:59:50;6.30;99.90
790;DHT22;378;48.844;9.156;2024-01-27T12:02:17;6.30;99.90
790;DHT22;378;48.844;9.156;2024-01-27T12:04:44;6.40;99.90
790;DHT22;378;48.844;9.156;2024-01-27T12:07:13;6.30;99.90
790;DHT22;378;48.844;9.156;2024-01-27T12:09:39;6.30;99.90
790;DHT22;378;48.844;9.156;2024-01-27T12:12:08;6.30;99.90
790;DHT22;378;48.844;9.156;2024-01-27T12:14:39;6.30;99.90
790;DHT22;378;48.844;9.156;2024-01-27T12:17:08;6.30;99.90
790;DHT22;378;48.844;9.156;2024-01-27T12:19:36;6.30;99.90
790;DHT22;378;48.844;9.156;2024-01-27T12:22:03;6.20;99.90
790;DHT22;378;48.844;9.156;2024-01-27T12:24:31;6.20;99.90
790;DHT22;378;48.844;9.156;2024-01-27T12:26:59;6.20;99.90
790;DHT22;378;48.844;9.156;2024-01-27T12:29:26;6.30;99.90
790;DHT22;378;48.844;9.156;2024-01-27T12:31:54;6.20;99.90
790;DHT22;378;48.844;9.156;2024-01-27T12:34:21;6.20;99.90
790;DHT22;378;48.844;9.156;2024-01-27T12:36:48;6.20;99.90
790;DHT22;378;48.844;9.156;2024-01-27T12:39:17;6.20;99.90
790;DHT22;378;48.844;9.156;2024-01-27T12:41:45;6.30;99.90
790;DHT22;378;48.844;9.156;2024-01-27T12:44:12;6.30;99.90
790;DHT22;378;48.844;9.156;2024-01-27T12:46:39;6.30;99.90
790;DHT22;378;48.844;9.156;2024-01-27T12:49:05;6.30;99.90
790;DHT22;378;48.844;9.156;2024-01-27T12:51:32;6.30;99.90
790;DHT22;378;48.844;9.156;2024-01-27T12:53:59;6.40;99.90
790;DHT22;378;48.844;9.156;2024-01-27T12:56:26;6.40;99.90
790;DHT22;378;48.844;9.156;2024-01-27T12:58:54;6.40;99.90
790;DHT22;378;48.844;9.156;2024-01-27T13:01:22;6.50;99.90
790;DHT22;378;48.844;9.156;2024-01-27T13:03:49;6.50;99.90
790;DHT22;378;48.844;9.156;2024-01-27T13:06:16;6.50;99.90
790;DHT22;378;48.844;9.156;2024-01-27T13:08:44;6.50;99.90
790;DHT22;378;48.844;9.156;2024-01-27T13:11:11;6.60;99.90
790;DHT22;378;48.844;9.156;2024-01-27T13:13:39;6.60;99.90
790;DHT22;378;48.844;9.156;2024-01-27T13:16:07;6.60;99.90
790;DHT22;378;48.844;9.156;2024-01-27T13:18:35;6.60;99.90
790;DHT22;378;48.844;9.156;2024-01-27T13:21:02;6.70;99.90
790;DHT22;378;48.844;9.156;2024-01-27T13:23:31;6.70;99.90
790;DHT22;378;48.844;9.156;2024-01-27T13:25:58;6.70;99.90
790;DHT22;378;48.844;9.156;2024-01-27T13:28:25;6.70;99.90
790;DHT22;378;48.844;9.156;2024-01-27T13:30:51;6.70;99.90
790;DHT22;378;48.844;9.156;2024-01-27T13:33:20;6.80;99.90
790;DHT22;378;48.844;9.156;2024-01-27T13:35:46;6.80;99.90
790;DHT22;378;48.844;9.156;2024-01-27T13:38:13;6.80;99.90
790;DHT22;378;48.844;9.156;2024-01-27T13:40:41;6.90;99.90
790;DHT22;378;48.844;9.156;2024-01-27T13:43:08;6.90;99.90
790;DHT22;378;48.844;9.156;2024-01-27T13:45:35;6.90;99.90
790;DHT22;378;48.844;9.156;2024-01-27T13:48:02;7.00;99.90
790;DHT22;378;48.844;9.156;2024-01-27T13:50:30;7.00;99.90
790;DHT22;378;48.844;9.156;2024-01-27T13:52:57;7.00;99.90
790;DHT22;378;48.844;9.156;2024-01-27T13:55:24;7.10;99.90
790;DHT22;378;48.844;9.156;2024-01-27T13:57:51;7.10;99.90
790;DHT22;378;48.844;9.156;2024-01-27T14:00:18;7.00;99.90
790;DHT22;378;48.844;9.156;2024-01-27T14:02:46;7.00;99.90
790;DHT22;378;48.844;9.156;2024-01-27T14:05:13;7.00;99.90
790;DHT22;378;48.844;9.156;2024-01-27T14:07:41;6.90;99.90
790;DHT22;378;48.844;9.156;2024-01-27T14:10:08;7.00;99.90
790;DHT22;378;48.844;9.156;2024-01-27T14:12:36;7.00;99.90
790;DHT22;378;48.844;9.156;2024-01-27T14:15:03;7.00;99.90
790;DHT22;378;48.844;9.156;2024-01-27T14:17:32;7.10;99.90
790;DHT22;378;48.844;9.156;2024-01-27T14:20:00;7.10;99.90
790;DHT22;378;48.844;9.156;2024-01-27T14:22:27;7.10;99.90
790;DHT22;378;48.844;9.156;2024-01-27T14:24:55;7.10;99.90
790;DHT22;378;48.844;9.156;2024-01-27T14:27:22;7.10;99.90
790;DHT22;378;48.844;9.156;2024-01-27T14:29:51;7.10;99.90
790;DHT22;378;48.844;9.156;2024-01-27T14:32:18;7.10;99.90
790;DHT22;378;48.844;9.156;2024-01-27T14:34:45;7.10;99.90
790;DHT22;378;48.844;9.156;2024-01-27T14:37:12;7.00;99.90
790;DHT22;378;48.844;9.156;2024-01-27T14:39:39;7.00;99.90
790;DHT22;378;48.844;9.156;2024-01-27T14:42:09;6.90;99.90
790;DHT22;378;48.844;9.156;2024-01-27T14:44:35;6.90;99.90
790;DHT22;378;48.844;9.156;2024-01-27T14:47:04;7.00;99.90
790;DHT22;378;48.844;9.156;2024-01-27T14:49:32;6.90;99.90
790;DHT22;378;48.844;9.156;2024-01-27T14:51:59;6.90;99.90
790;DHT22;378;48.844;9.156;2024-01-27T14:54:26;6.90;99.90
790;DHT22;378;48.844;9.156;2024-01-27T14:56:53;6.90;99.90
790;DHT22;378;48.844;9.156;2024-01-27T14:59:21;6.80;99.90
790;DHT22;378;48.844;9.156;2024-01-27T15:01:48;6.80;99.90
790;DHT22;378;48.844;9.156;2024-01-27T15:04:16;6.80;99.90
790;DHT22;378;48.844;9.156;2024-01-27T15:06:42;6.80;99.90
790;DHT22;378;48.844;9.156;2024-01-27T15:09:11;6.80;99.90
790;DHT22;378;48.844;9.156;2024-01-27T15:11:41;6.70;99.90
790;DHT22;378;48.844;9.156;2024-01-27T15:14:07;6.70;99.90
790;DHT22;378;48.844;9.156;2024-01-27T15:16:36;6.70;99.90
790;DHT22;378;48.844;9.156;2024-01-27T15:19:03;6.70;99.90
790;DHT22;378;48.844;9.156;2024-01-27T15:21:29;6.70;99.90
790;DHT22;378;48.844;9.156;2024-01-27T15:23:56;6.70;99.90
790;DHT22;378;48.844;9.156;2024-01-27T15:26:23;6.60;99.90
790;DHT22;378;48.844;9.156;2024-01-27T15:28:50;6.60;99.90
790;DHT22;378;48.844;9.156;2024-01-27T15:31:17;6.60;99.90
790;DHT22;378;48.844;9.156;2024-01-27T15:33:45;6.60;99.90
790;DHT22;378;48.844;9.156;2024-01-27T15:36:12;6.50;99.90
790;DHT22;378;48.844;9.156;2024-01-27T15:38:39;6.40;99.90
790;DHT22;378;48.844;9.156;2024-01-27T15:41:06;6.40;99.90
790;DHT22;378;48.844;9.156;2024-01-27T15:43:34;6.40;99.90
790;DHT22;378;48.844;9.156;2024-01-27T15:46:00;6.40;99.90
790;DHT22;378;48.844;9.156;2024-01-27T15:48:30;6.30;99.90
790;DHT22;378;48.844;9.156;2024-01-27T15:50:59;6.30;99.90
790;DHT22;378;48.844;9.156;2024-01-27T15:53:25;6.30;99.90
790;DHT22;378;48.844;9.156;2024-01-27T15:55:52;6.20;99.90
790;DHT22;378;48.844;9.156;2024-01-27T15:58:19;6.20;99.90
790;DHT22;378;48.844;9.156;2024-01-27T16:00:46;6.10;99.90
790;DHT22;378;48.844;9.156;2024-01-27T16:03:13;6.10;99.90
790;DHT22;378;48.844;9.156;2024-01-27T16:05:40;6.10;99.90
790;DHT22;378;48.844;9.156;2024-01-27T16:08:09;6.00;99.90
790;DHT22;378;48.844;9.156;2024-01-27T16:10:36;5.90;99.90
790;DHT22;378;48.844;9.156;2024-01-27T16:13:03;5.90;99.90
790;DHT22;378;48.844;9.156;2024-01-27T16:15:30;5.80;99.90
790;DHT22;378;48.844;9.156;2024-01-27T16:17:57;5.80;99.90
790;DHT22;378;48.844;9.156;2024-01-27T16:20:24;5.70;99.90
790;DHT22;378;48.844;9.156;2024-01-27T16:22:51;5.70;99.90
790;DHT22;378;48.844;9.156;2024-01-27T16:25:19;5.60;99.90
790;DHT22;378;48.844;9.156;2024-01-27T16:27:46;5.60;99.90
790;DHT22;378;48.844;9.156;2024-01-27T16:30:13;5.50;99.90
790;DHT22;378;48.844;9.156;2024-01-27T16:32:41;5.50;99.90
790;DHT22;378;48.844;9.156;2024-01-27T16:35:08;5.50;99.90
790;DHT22;378;48.844;9.156;2024-01-27T16:37:35;5.40;99.90
790;DHT22;378;48.844;9.156;2024-01-27T16:40:03;5.40;99.90
790;DHT22;378;48.844;9.156;2024-01-27T16:42:31;5.40;99.90
790;DHT22;378;48.844;9.156;2024-01-27T16:45:00;5.30;99.90
790;DHT22;378;48.844;9.156;2024-01-27T16:47:27;5.30;99.90
790;DHT22;378;48.844;9.156;2024-01-27T16:49:53;5.30;99.90
790;DHT22;378;48.844;9.156;2024-01-27T16:52:20;5.20;99.90